sensor_id;sensor_type;location;lat;lon;timestamp;pressure;altitude;pressure_sealevel;temperature;humidity
59289;BME280;45056;47.602;9.886;2022-10-01T00:02:08;92777.88;;;10.24;69.04
59289;BME280;45056;47.602;9.886;2022-10-01T00:04:37;92787.66;;;10.21;69.19
59289;BME280;45056;47.602;9.886;2022-10-01T00:07:06;92784.19;;;10.21;69.11
59289;BME280;45056;47.602;9.886;2022-10-01T00:09:40;92790.06;;;10.19;69.21
59289;BME280;45056;47.602;9.886;2022-10-01T00:12:09;92792.78;;;10.19;69.12
59289;BME280;45056;47.602;9.886;2022-10-01T00:14:41;92790.94;;;10.16;69.12
59289;BME280;45056;47.602;9.886;2022-10-01T00:17:10;92785.63;;;10.13;68.93
59289;BME280;45056;47.602;9.886;2022-10-01T00:19:38;92793.47;;;10.10;68.99
59289;BME280;45056;47.602;9.886;2022-10-01T00:22:06;92792.41;;;10.08;69.00
59289;BME280;45056;47.602;9.886;2022-10-01T00:24:34;92789.78;;;10.04;69.20
59289;BME280;45056;47.602;9.886;2022-10-01T00:27:03;92792.19;;;10.02;69.14
59289;BME280;45056;47.602;9.886;2022-10-01T00:29:32;92785.69;;;10.00;69.43
59289;BME280;45056;47.602;9.886;2022-10-01T00:32:01;92777.97;;;9.98;69.34
59289;BME280;45056;47.602;9.886;2022-10-01T00:34:29;92780.38;;;9.96;69.23
59289;BME280;45056;47.602;9.886;2022-10-01T00:36:57;92775.81;;;9.93;69.19
59289;BME280;45056;47.602;9.886;2022-10-01T00:39:25;92772.78;;;9.91;69.37
59289;BME280;45056;47.602;9.886;2022-10-01T00:41:53;92770.50;;;9.89;69.22
59289;BME280;45056;47.602;9.886;2022-10-01T00:44:32;92772.91;;;9.87;69.16
59289;BME280;45056;47.602;9.886;2022-10-01T00:47:08;92776.81;;;9.86;69.12
59289;BME280;45056;47.602;9.886;2022-10-01T00:49:49;92777.28;;;9.85;69.07
59289;BME280;45056;47.602;9.886;2022-10-01T00:52:24;92771.84;;;9.85;68.95
59289;BME280;45056;47.602;9.886;2022-10-01T00:55:00;92781.19;;;9.84;68.89
59289;BME280;45056;47.602;9.886;2022-10-01T00:57:33;92785.09;;;9.82;68.73
59289;BME280;45056;47.602;9.886;2022-10-01T01:00:06;92782.50;;;9.79;68.69
59289;BME280;45056;47.602;9.886;2022-10-01T01:02:35;92782.50;;;9.79;68.62
59289;BME280;45056;47.602;9.886;2022-10-01T01:05:05;92782.63;;;9.75;68.64
59289;BME280;45056;47.602;9.886;2022-10-01T01:07:45;92775.03;;;9.70;68.27
59289;BME280;45056;47.602;9.886;2022-10-01T01:10:23;92784.50;;;9.65;68.06
59289;BME280;45056;47.602;9.886;2022-10-01T01:13:10;92788.09;;;9.62;68.12
59289;BME280;45056;47.602;9.886;2022-10-01T01:15:53;92780.50;;;9.57;68.24
59289;BME280;45056;47.602;9.886;2022-10-01T01:18:34;92781.38;;;9.54;67.99
59289;BME280;45056;47.602;9.886;2022-10-01T01:21:18;92783.47;;;9.50;67.85
59289;BME280;45056;47.602;9.886;2022-10-01T01:24:25;92784.34;;;9.47;67.96
59289;BME280;45056;47.602;9.886;2022-10-01T01:27:19;92780.53;;;9.44;67.91
59289;BME280;45056;47.602;9.886;2022-10-01T01:30:01;92787.16;;;9.43;68.02
59289;BME280;45056;47.602;9.886;2022-10-01T01:32:41;92788.81;;;9.41;68.12
59289;BME280;45056;47.602;9.886;2022-10-01T01:35:23;92783.06;;;9.38;68.20
59289;BME280;45056;47.602;9.886;2022-10-01T01:38:01;92778.81;;;9.37;68.44
59289;BME280;45056;47.602;9.886;2022-10-01T01:40:37;92766.44;;;9.36;68.46
59289;BME280;45056;47.602;9.886;2022-10-01T01:43:13;92769.91;;;9.37;68.43
59289;BME280;45056;47.602;9.886;2022-10-01T01:45:50;92761.34;;;9.38;68.60
59289;BME280;45056;47.602;9.886;2022-10-01T01:48:22;92758.63;;;9.38;68.73
59289;BME280;45056;47.602;9.886;2022-10-01T01:50:53;92764.38;;;9.41;68.69
59289;BME280;45056;47.602;9.886;2022-10-01T01:53:27;92771.31;;;9.42;68.54
59289;BME280;45056;47.602;9.886;2022-10-01T01:55:58;92773.25;;;9.41;68.41
59289;BME280;45056;47.602;9.886;2022-10-01T01:58:26;92777.50;;;9.42;68.58
59289;BME280;45056;47.602;9.886;2022-10-01T02:00:57;92773.56;;;9.43;68.59
59289;BME280;45056;47.602;9.886;2022-10-01T02:03:26;92766.63;;;9.42;68.39
59289;BME280;45056;47.602;9.886;2022-10-01T02:06:09;92755.03;;;9.42;68.46
59289;BME280;45056;47.602;9.886;2022-10-01T02:09:02;92761.34;;;9.38;68.83
59289;BME280;45056;47.602;9.886;2022-10-01T02:11:48;92769.47;;;9.38;69.11
59289;BME280;45056;47.602;9.886;2022-10-01T02:14:35;92772.84;;;9.43;69.31
59289;BME280;45056;47.602;9.886;2022-10-01T02:17:22;92768.03;;;9.47;69.43
59289;BME280;45056;47.602;9.886;2022-10-01T02:20:02;92772.59;;;9.50;69.39
59289;BME280;45056;47.602;9.886;2022-10-01T02:22:42;92766.59;;;9.55;69.54
59289;BME280;45056;47.602;9.886;2022-10-01T02:25:17;92756.38;;;9.59;69.51
59289;BME280;45056;47.602;9.886;2022-10-01T02:27:55;92749.63;;;9.64;69.62
59289;BME280;45056;47.602;9.886;2022-10-01T02:30:30;92745.59;;;9.69;69.67
59289;BME280;45056;47.602;9.886;2022-10-01T02:33:04;92755.59;;;9.72;69.74
59289;BME280;45056;47.602;9.886;2022-10-01T02:35:36;92759.69;;;9.76;69.89
59289;BME280;45056;47.602;9.886;2022-10-01T02:38:07;92763.50;;;9.79;69.93
59289;BME280;45056;47.602;9.886;2022-10-01T02:40:41;92755.97;;;9.83;70.07
59289;BME280;45056;47.602;9.886;2022-10-01T02:43:16;92745.00;;;9.87;69.99
59289;BME280;45056;47.602;9.886;2022-10-01T02:45:54;92749.22;;;9.88;70.11
59289;BME280;45056;47.602;9.886;2022-10-01T02:48:28;92746.50;;;9.88;70.16
59289;BME280;45056;47.602;9.886;2022-10-01T02:51:03;92746.03;;;9.89;70.21
59289;BME280;45056;47.602;9.886;2022-10-01T02:53:49;92732.47;;;9.89;70.20
59289;BME280;45056;47.602;9.886;2022-10-01T02:56:24;92729.00;;;9.89;70.41
59289;BME280;45056;47.602;9.886;2022-10-01T02:59:11;92727.03;;;9.89;70.28
59289;BME280;45056;47.602;9.886;2022-10-01T03:01:39;92731.72;;;9.89;70.21
59289;BME280;45056;47.602;9.886;2022-10-01T03:04:08;92729.44;;;9.87;70.28
59289;BME280;45056;47.602;9.886;2022-10-01T03:06:37;92733.34;;;9.86;70.17
59289;BME280;45056;47.602;9.886;2022-10-01T03:09:05;92726.41;;;9.85;69.95
59289;BME280;45056;47.602;9.886;2022-10-01T03:11:34;92725.19;;;9.86;69.94
59289;BME280;45056;47.602;9.886;2022-10-01T03:14:02;92723.38;;;9.83;70.00
59289;BME280;45056;47.602;9.886;2022-10-01T03:16:32;92717.94;;;9.83;69.84
59289;BME280;45056;47.602;9.886;2022-10-01T03:19:00;92723.03;;;9.81;69.80
59289;BME280;45056;47.602;9.886;2022-10-01T03:21:29;92720.34;;;9.81;69.64
59289;BME280;45056;47.602;9.886;2022-10-01T03:23:58;92712.19;;;9.81;69.52
59289;BME280;45056;47.602;9.886;2022-10-01T03:26:26;92713.38;;;9.80;69.64
59289;BME280;45056;47.602;9.886;2022-10-01T03:28:54;92720.00;;;9.79;69.48
59289;BME280;45056;47.602;9.886;2022-10-01T03:31:22;92720.00;;;9.79;69.44
59289;BME280;45056;47.602;9.886;2022-10-01T03:33:50;92716.53;;;9.78;69.46
59289;BME280;45056;47.602;9.886;2022-10-01T03:36:18;92720.00;;;9.79;69.38
59289;BME280;45056;47.602;9.886;2022-10-01T03:38:47;92714.59;;;9.79;69.44
59289;BME280;45056;47.602;9.886;2022-10-01T03:41:15;92711.88;;;9.79;69.36
59289;BME280;45056;47.602;9.886;2022-10-01T03:43:43;92714.59;;;9.79;69.48
59289;BME280;45056;47.602;9.886;2022-10-01T03:46:11;92707.94;;;9.80;69.43
59289;BME280;45056;47.602;9.886;2022-10-01T03:48:39;92707.94;;;9.80;69.34
59289;BME280;45056;47.602;9.886;2022-10-01T03:51:07;92706.44;;;9.79;69.27
59289;BME280;45056;47.602;9.886;2022-10-01T03:53:36;92700.22;;;9.78;69.28
59289;BME280;45056;47.602;9.886;2022-10-01T03:56:06;92697.97;;;9.77;69.33
59289;BME280;45056;47.602;9.886;2022-10-01T03:58:34;92702.63;;;9.76;69.26
59289;BME280;45056;47.602;9.886;2022-10-01T04:01:02;92705.34;;;9.76;69.30
59289;BME280;45056;47.602;9.886;2022-10-01T04:03:30;92708.50;;;9.75;69.23
59289;BME280;45056;47.602;9.886;2022-10-01T04:05:58;92704.28;;;9.74;69.30
59289;BME280;45056;47.602;9.886;2022-10-01T04:08:26;92709.72;;;9.74;69.25
59289;BME280;45056;47.602;9.886;2022-10-01T04:10:54;92710.47;;;9.74;69.22
59289;BME280;45056;47.602;9.886;2022-10-01T04:13:24;92707.31;;;9.76;69.15
59289;BME280;45056;47.602;9.886;2022-10-01T04:15:52;92728.59;;;9.77;69.12
59289;BME280;45056;47.602;9.886;2022-10-01T04:18:20;92713.50;;;9.76;69.20
59289;BME280;45056;47.602;9.886;2022-10-01T04:20:48;92715.47;;;9.76;69.05
59289;BME280;45056;47.602;9.886;2022-10-01T04:23:16;92722.84;;;9.75;69.11
59289;BME280;45056;47.602;9.886;2022-10-01T04:25:45;92726.03;;;9.74;69.11
59289;BME280;45056;47.602;9.886;2022-10-01T04:28:13;92722.22;;;9.71;69.24
59289;BME280;45056;47.602;9.886;2022-10-01T04:30:44;92726.13;;;9.70;69.12
59289;BME280;45056;47.602;9.886;2022-10-01T04:33:15;92725.38;;;9.70;69.04
59289;BME280;45056;47.602;9.886;2022-10-01T04:35:43;92717.22;;;9.70;69.22
59289;BME280;45056;47.602;9.886;2022-10-01T04:38:14;92719.19;;;9.69;69.21
59289;BME280;45056;47.602;9.886;2022-10-01T04:40:43;92708.78;;;9.67;69.25
59289;BME280;45056;47.602;9.886;2022-10-01T04:43:11;92698.34;;;9.66;69.25
59289;BME280;45056;47.602;9.886;2022-10-01T04:45:39;92708.78;;;9.67;69.28
59289;BME280;45056;47.602;9.886;2022-10-01T04:48:09;92714.63;;;9.66;69.31
59289;BME280;45056;47.602;9.886;2022-10-01T04:50:37;92717.03;;;9.64;69.35
59289;BME280;45056;47.602;9.886;2022-10-01T04:53:05;92716.72;;;9.62;69.34
59289;BME280;45056;47.602;9.886;2022-10-01T04:55:33;92711.72;;;9.60;69.42
59289;BME280;45056;47.602;9.886;2022-10-01T04:58:01;92714.56;;;9.57;69.54
59289;BME280;45056;47.602;9.886;2022-10-01T05:00:29;92710.75;;;9.54;69.61
59289;BME280;45056;47.602;9.886;2022-10-01T05:02:58;92710.44;;;9.52;69.71
59289;BME280;45056;47.602;9.886;2022-10-01T05:05:27;92713.59;;;9.50;69.67
59289;BME280;45056;47.602;9.886;2022-10-01T05:07:58;92721.41;;;9.48;69.73
59289;BME280;45056;47.602;9.886;2022-10-01T05:10:27;92712.94;;;9.46;69.70
59289;BME280;45056;47.602;9.886;2022-10-01T05:12:55;92722.75;;;9.44;69.68
59289;BME280;45056;47.602;9.886;2022-10-01T05:15:29;92718.19;;;9.41;69.76
59289;BME280;45056;47.602;9.886;2022-10-01T05:17:57;92715.59;;;9.37;69.65
59289;BME280;45056;47.602;9.886;2022-10-01T05:20:27;92711.69;;;9.38;69.57
59289;BME280;45056;47.602;9.886;2022-10-01T05:22:55;92716.38;;;9.37;69.52
59289;BME280;45056;47.602;9.886;2022-10-01T05:25:23;92718.75;;;9.35;69.46
59289;BME280;45056;47.602;9.886;2022-10-01T05:27:51;92718.00;;;9.35;69.47
59289;BME280;45056;47.602;9.886;2022-10-01T05:30:19;92728.09;;;9.34;69.33
59289;BME280;45056;47.602;9.886;2022-10-01T05:32:53;92728.84;;;9.35;69.41
59289;BME280;45056;47.602;9.886;2022-10-01T05:35:22;92735.38;;;9.37;69.40
59289;BME280;45056;47.602;9.886;2022-10-01T05:37:57;92740.03;;;9.37;69.27
59289;BME280;45056;47.602;9.886;2022-10-01T05:40:28;92735.38;;;9.37;69.33
59289;BME280;45056;47.602;9.886;2022-10-01T05:42:58;92733.41;;;9.38;69.18
59289;BME280;45056;47.602;9.886;2022-10-01T05:45:29;92742.00;;;9.36;69.25
59289;BME280;45056;47.602;9.886;2022-10-01T05:47:59;92736.91;;;9.38;69.14
59289;BME280;45056;47.602;9.886;2022-10-01T05:50:31;92749.59;;;9.42;69.11
59289;BME280;45056;47.602;9.886;2022-10-01T05:53:02;92747.19;;;9.44;69.08
59289;BME280;45056;47.602;9.886;2022-10-01T05:55:32;92749.47;;;9.45;68.88
59289;BME280;45056;47.602;9.886;2022-10-01T05:58:03;92753.25;;;9.48;68.85
59289;BME280;45056;47.602;9.886;2022-10-01T06:00:34;92741.53;;;9.51;68.59
59289;BME280;45056;47.602;9.886;2022-10-01T06:03:04;92736.84;;;9.51;68.70
59289;BME280;45056;47.602;9.886;2022-10-01T06:05:35;92743.81;;;9.52;68.73
59289;BME280;45056;47.602;9.886;2022-10-01T06:08:06;92744.56;;;9.53;68.58
59289;BME280;45056;47.602;9.886;2022-10-01T06:10:35;92740.63;;;9.54;68.71
59289;BME280;45056;47.602;9.886;2022-10-01T06:13:04;92743.34;;;9.54;68.82
59289;BME280;45056;47.602;9.886;2022-10-01T06:15:35;92760.09;;;9.52;68.92
59289;BME280;45056;47.602;9.886;2022-10-01T06:18:07;92755.41;;;9.53;69.21
59289;BME280;45056;47.602;9.886;2022-10-01T06:20:38;92751.50;;;9.54;69.12
59289;BME280;45056;47.602;9.886;2022-10-01T06:23:12;92752.59;;;9.57;68.91
59289;BME280;45056;47.602;9.886;2022-10-01T06:25:42;92753.66;;;9.59;68.86
59289;BME280;45056;47.602;9.886;2022-10-01T06:28:11;92758.22;;;9.62;68.82
59289;BME280;45056;47.602;9.886;2022-10-01T06:30:41;92754.59;;;9.65;68.56
59289;BME280;45056;47.602;9.886;2022-10-01T06:33:11;92759.19;;;9.69;68.46
59289;BME280;45056;47.602;9.886;2022-10-01T06:35:43;92757.09;;;9.73;68.43
59289;BME280;45056;47.602;9.886;2022-10-01T06:38:15;92756.22;;;9.76;68.26
59289;BME280;45056;47.602;9.886;2022-10-01T06:40:50;92755.34;;;9.79;68.23
59289;BME280;45056;47.602;9.886;2022-10-01T06:43:20;92758.38;;;9.81;68.24
59289;BME280;45056;47.602;9.886;2022-10-01T06:45:48;92765.31;;;9.82;68.23
59289;BME280;45056;47.602;9.886;2022-10-01T06:48:18;92764.56;;;9.81;68.44
59289;BME280;45056;47.602;9.886;2022-10-01T06:50:49;92761.84;;;9.81;68.63
59289;BME280;45056;47.602;9.886;2022-10-01T06:53:19;92761.84;;;9.81;68.77
59289;BME280;45056;47.602;9.886;2022-10-01T06:55:47;92755.19;;;9.82;68.63
59289;BME280;45056;47.602;9.886;2022-10-01T06:58:17;92750.97;;;9.81;68.82
59289;BME280;45056;47.602;9.886;2022-10-01T07:00:48;92750.22;;;9.81;68.82
59289;BME280;45056;47.602;9.886;2022-10-01T07:03:18;92754.44;;;9.82;68.85
59289;BME280;45056;47.602;9.886;2022-10-01T07:05:49;92749.75;;;9.82;68.84
59289;BME280;45056;47.602;9.886;2022-10-01T07:08:18;92750.22;;;9.81;68.75
59289;BME280;45056;47.602;9.886;2022-10-01T07:10:47;92746.00;;;9.80;68.80
59289;BME280;45056;47.602;9.886;2022-10-01T07:13:17;92740.97;;;9.78;68.92
59289;BME280;45056;47.602;9.886;2022-10-01T07:15:46;92733.59;;;9.79;68.92
59289;BME280;45056;47.602;9.886;2022-10-01T07:18:14;92739.03;;;9.79;69.00
59289;BME280;45056;47.602;9.886;2022-10-01T07:20:42;92732.81;;;9.78;68.97
59289;BME280;45056;47.602;9.886;2022-10-01T07:23:12;92728.16;;;9.79;68.88
59289;BME280;45056;47.602;9.886;2022-10-01T07:25:44;92736.63;;;9.81;69.01
59289;BME280;45056;47.602;9.886;2022-10-01T07:28:14;92727.28;;;9.82;69.00
59289;BME280;45056;47.602;9.886;2022-10-01T07:30:45;92730.75;;;9.82;68.92
59289;BME280;45056;47.602;9.886;2022-10-01T07:33:24;92731.50;;;9.83;68.96
59289;BME280;45056;47.602;9.886;2022-10-01T07:35:53;92724.13;;;9.84;69.03
59289;BME280;45056;47.602;9.886;2022-10-01T07:38:21;92722.16;;;9.84;68.96
59289;BME280;45056;47.602;9.886;2022-10-01T07:40:52;92717.03;;;9.86;68.67
59289;BME280;45056;47.602;9.886;2022-10-01T07:43:20;92713.91;;;9.88;68.92
59289;BME280;45056;47.602;9.886;2022-10-01T07:45:49;92717.66;;;9.90;68.89
59289;BME280;45056;47.602;9.886;2022-10-01T07:48:20;92719.81;;;9.95;68.90
59289;BME280;45056;47.602;9.886;2022-10-01T07:50:48;92715.03;;;10.00;68.63
59289;BME280;45056;47.602;9.886;2022-10-01T07:53:17;92721.09;;;10.04;68.81
59289;BME280;45056;47.602;9.886;2022-10-01T07:55:46;92718.53;;;10.09;68.62
59289;BME280;45056;47.602;9.886;2022-10-01T07:58:15;92718.44;;;10.13;68.65
59289;BME280;45056;47.602;9.886;2022-10-01T08:00:44;92716.34;;;10.17;68.56
59289;BME280;45056;47.602;9.886;2022-10-01T08:03:12;92720.13;;;10.20;68.40
59289;BME280;45056;47.602;9.886;2022-10-01T08:05:41;92716.84;;;10.25;67.73
59289;BME280;45056;47.602;9.886;2022-10-01T08:08:09;92711.59;;;10.31;67.31
59289;BME280;45056;47.602;9.886;2022-10-01T08:10:38;92708.59;;;10.38;66.76
59289;BME280;45056;47.602;9.886;2022-10-01T08:13:10;92711.38;;;10.47;66.46
59289;BME280;45056;47.602;9.886;2022-10-01T08:15:43;92706.13;;;10.53;66.04
59289;BME280;45056;47.602;9.886;2022-10-01T08:18:15;92705.84;;;10.60;65.89
59289;BME280;45056;47.602;9.886;2022-10-01T08:20:43;92704.84;;;10.67;65.37
59289;BME280;45056;47.602;9.886;2022-10-01T08:23:13;92708.47;;;10.73;65.29
59289;BME280;45056;47.602;9.886;2022-10-01T08:25:43;92701.53;;;10.81;65.17
59289;BME280;45056;47.602;9.886;2022-10-01T08:28:13;92703.97;;;10.89;65.40
59289;BME280;45056;47.602;9.886;2022-10-01T08:30:43;92712.91;;;10.89;66.00
59289;BME280;45056;47.602;9.886;2022-10-01T08:33:12;92708.69;;;10.88;66.47
59289;BME280;45056;47.602;9.886;2022-10-01T08:35:41;92702.16;;;10.86;66.67
59289;BME280;45056;47.602;9.886;2022-10-01T08:38:11;92721.22;;;10.86;66.85
59289;BME280;45056;47.602;9.886;2022-10-01T08:40:45;92722.72;;;10.87;66.94
59289;BME280;45056;47.602;9.886;2022-10-01T08:43:30;92711.09;;;10.86;66.86
59289;BME280;45056;47.602;9.886;2022-10-01T08:46:06;92713.03;;;10.86;66.91
59289;BME280;45056;47.602;9.886;2022-10-01T08:48:49;92719.25;;;10.86;67.00
59289;BME280;45056;47.602;9.886;2022-10-01T08:51:28;92728.47;;;10.89;67.18
59289;BME280;45056;47.602;9.886;2022-10-01T08:54:15;92722.59;;;10.90;67.30
59289;BME280;45056;47.602;9.886;2022-10-01T08:56:55;92714.44;;;10.90;67.40
59289;BME280;45056;47.602;9.886;2022-10-01T08:59:35;92715.94;;;10.91;67.79
59289;BME280;45056;47.602;9.886;2022-10-01T09:02:19;92717.47;;;10.92;67.78
59289;BME280;45056;47.602;9.886;2022-10-01T09:04:54;92720.06;;;10.96;67.56
59289;BME280;45056;47.602;9.886;2022-10-01T09:07:39;92709.78;;;11.00;67.30
59289;BME280;45056;47.602;9.886;2022-10-01T09:10:32;92703.44;;;11.03;66.87
59289;BME280;45056;47.602;9.886;2022-10-01T09:16:24;92713.84;;;11.05;67.63
59289;BME280;45056;47.602;9.886;2022-10-01T09:19:14;92715.22;;;11.00;67.82
59289;BME280;45056;47.602;9.886;2022-10-01T09:22:12;92712.63;;;10.96;68.14
59289;BME280;45056;47.602;9.886;2022-10-01T09:25:00;92710.94;;;10.90;68.23
59289;BME280;45056;47.602;9.886;2022-10-01T09:27:38;92705.78;;;10.82;68.35
59289;BME280;45056;47.602;9.886;2022-10-01T09:30:11;92708.66;;;10.79;68.49
59289;BME280;45056;47.602;9.886;2022-10-01T09:32:51;92708.78;;;10.75;68.58
59289;BME280;45056;47.602;9.886;2022-10-01T09:35:34;92705.13;;;10.69;68.41
59289;BME280;45056;47.602;9.886;2022-10-01T09:38:17;92706.03;;;10.66;68.48
59289;BME280;45056;47.602;9.886;2022-10-01T09:40:52;92707.25;;;10.65;68.68
59289;BME280;45056;47.602;9.886;2022-10-01T09:43:23;92703.31;;;10.66;68.77
59289;BME280;45056;47.602;9.886;2022-10-01T09:45:55;92707.88;;;10.69;68.96
59289;BME280;45056;47.602;9.886;2022-10-01T09:48:30;92719.06;;;10.71;69.09
59289;BME280;45056;47.602;9.886;2022-10-01T09:51:09;92713.91;;;10.73;69.05
59289;BME280;45056;47.602;9.886;2022-10-01T09:53:46;92707.28;;;10.74;68.94
59289;BME280;45056;47.602;9.886;2022-10-01T09:56:29;92716.19;;;10.75;69.16
59289;BME280;45056;47.602;9.886;2022-10-01T09:59:09;92723.91;;;10.76;69.16
59289;BME280;45056;47.602;9.886;2022-10-01T10:01:45;92718.47;;;10.76;69.28
59289;BME280;45056;47.602;9.886;2022-10-01T10:04:18;92724.69;;;10.77;69.15
59289;BME280;45056;47.602;9.886;2022-10-01T10:06:58;92722.38;;;10.75;69.36
59289;BME280;45056;47.602;9.886;2022-10-01T10:09:31;92723.13;;;10.76;69.55
59289;BME280;45056;47.602;9.886;2022-10-01T10:12:02;92727.84;;;10.75;69.85
59289;BME280;45056;47.602;9.886;2022-10-01T10:14:38;92732.06;;;10.76;69.85
59289;BME280;45056;47.602;9.886;2022-10-01T10:17:13;92721.19;;;10.76;69.78
59289;BME280;45056;47.602;9.886;2022-10-01T10:19:45;92722.69;;;10.77;69.85
59289;BME280;45056;47.602;9.886;2022-10-01T10:22:21;92730.44;;;10.79;69.79
59289;BME280;45056;47.602;9.886;2022-10-01T10:24:53;92731.16;;;10.79;69.92
59289;BME280;45056;47.602;9.886;2022-10-01T10:27:26;92733.88;;;10.79;69.97
59289;BME280;45056;47.602;9.886;2022-10-01T10:30:04;92733.59;;;10.77;70.14
59289;BME280;45056;47.602;9.886;2022-10-01T10:32:42;92736.75;;;10.76;70.20
59289;BME280;45056;47.602;9.886;2022-10-01T10:35:16;92741.13;;;10.73;70.22
59289;BME280;45056;47.602;9.886;2022-10-01T10:37:53;92745.94;;;10.69;70.12
59289;BME280;45056;47.602;9.886;2022-10-01T10:40:26;92742.63;;;10.65;70.55
59289;BME280;45056;47.602;9.886;2022-10-01T10:43:18;92733.06;;;10.60;70.64
59289;BME280;45056;47.602;9.886;2022-10-01T10:45:51;92744.84;;;10.57;70.68
59289;BME280;45056;47.602;9.886;2022-10-01T10:48:24;92736.38;;;10.55;70.80
59289;BME280;45056;47.602;9.886;2022-10-01T10:50:59;92735.28;;;10.52;70.95
59289;BME280;45056;47.602;9.886;2022-10-01T10:53:42;92731.50;;;10.50;71.05
59289;BME280;45056;47.602;9.886;2022-10-01T10:56:18;92734.78;;;10.45;71.06
59289;BME280;45056;47.602;9.886;2022-10-01T10:58:49;92746.13;;;10.43;71.11
59289;BME280;45056;47.602;9.886;2022-10-01T11:01:26;92737.97;;;10.43;71.20
59289;BME280;45056;47.602;9.886;2022-10-01T11:03:58;92758.53;;;10.44;71.25
59289;BME280;45056;47.602;9.886;2022-10-01T11:06:28;92750.38;;;10.44;71.44
59289;BME280;45056;47.602;9.886;2022-10-01T11:09:02;92762.31;;;10.47;71.50
59289;BME280;45056;47.602;9.886;2022-10-01T11:11:53;92747.38;;;10.51;71.46
59289;BME280;45056;47.602;9.886;2022-10-01T11:14:49;92754.19;;;10.56;71.17
59289;BME280;45056;47.602;9.886;2022-10-01T11:20:47;92768.00;;;10.62;70.58
59289;BME280;45056;47.602;9.886;2022-10-01T11:23:45;92765.72;;;10.60;70.33
59289;BME280;45056;47.602;9.886;2022-10-01T11:26:37;92774.31;;;10.59;70.45
59289;BME280;45056;47.602;9.886;2022-10-01T11:29:27;92777.38;;;10.61;70.63
59289;BME280;45056;47.602;9.886;2022-10-01T11:32:16;92778.09;;;10.61;70.69
59289;BME280;45056;47.602;9.886;2022-10-01T11:38:15;92786.28;;;10.61;70.80
59289;BME280;45056;47.602;9.886;2022-10-01T11:41:14;92773.88;;;10.60;70.82
59289;BME280;45056;47.602;9.886;2022-10-01T11:43:53;92774.63;;;10.61;71.11
59289;BME280;45056;47.602;9.886;2022-10-01T11:46:39;92776.16;;;10.62;71.15
59289;BME280;45056;47.602;9.886;2022-10-01T11:49:40;92778.88;;;10.62;71.10
59289;BME280;45056;47.602;9.886;2022-10-01T11:52:23;92777.78;;;10.59;71.01
59289;BME280;45056;47.602;9.886;2022-10-01T11:55:10;92785.19;;;10.59;71.05
59289;BME280;45056;47.602;9.886;2022-10-01T11:58:11;92797.59;;;10.60;71.26
59289;BME280;45056;47.602;9.886;2022-10-01T12:01:10;92809.66;;;10.59;71.14
59289;BME280;45056;47.602;9.886;2022-10-01T12:03:55;92815.88;;;10.59;71.20
59289;BME280;45056;47.602;9.886;2022-10-01T12:06:38;92809.66;;;10.59;71.22
59289;BME280;45056;47.602;9.886;2022-10-01T12:09:16;92806.94;;;10.59;71.29
59289;BME280;45056;47.602;9.886;2022-10-01T12:11:57;92801.06;;;10.60;71.35
59289;BME280;45056;47.602;9.886;2022-10-01T12:14:41;92804.56;;;10.61;71.28
59289;BME280;45056;47.602;9.886;2022-10-01T12:17:22;92804.56;;;10.61;71.19
59289;BME280;45056;47.602;9.886;2022-10-01T12:19:58;92800.63;;;10.62;71.24
59289;BME280;45056;47.602;9.886;2022-10-01T12:22:34;92795.19;;;10.62;71.20
59289;BME280;45056;47.602;9.886;2022-10-01T12:25:10;92788.56;;;10.63;71.31
59289;BME280;45056;47.602;9.886;2022-10-01T12:27:48;92792.78;;;10.64;71.24
59289;BME280;45056;47.602;9.886;2022-10-01T12:30:30;92805.94;;;10.65;71.21
59289;BME280;45056;47.602;9.886;2022-10-01T12:36:37;92808.53;;;10.69;71.06
59289;BME280;45056;47.602;9.886;2022-10-01T12:39:27;92808.06;;;10.71;71.13
59289;BME280;45056;47.602;9.886;2022-10-01T12:42:28;92814.59;;;10.73;71.10
59289;BME280;45056;47.602;9.886;2022-10-01T12:45:21;92825.47;;;10.73;71.16
59289;BME280;45056;47.602;9.886;2022-10-01T12:48:04;92804.78;;;10.76;71.26
59289;BME280;45056;47.602;9.886;2022-10-01T12:50:51;92824.91;;;10.78;71.20
59289;BME280;45056;47.602;9.886;2022-10-01T12:53:45;92831.13;;;10.79;71.12
59289;BME280;45056;47.602;9.886;2022-10-01T12:56:28;92827.19;;;10.80;71.13
59289;BME280;45056;47.602;9.886;2022-10-01T12:59:23;92827.50;;;10.82;71.22
59289;BME280;45056;47.602;9.886;2022-10-01T13:02:24;92839.13;;;10.82;71.18
59289;BME280;45056;47.602;9.886;2022-10-01T13:05:17;92829.03;;;10.83;71.24
59289;BME280;45056;47.602;9.886;2022-10-01T13:08:09;92844.16;;;10.84;71.38
59289;BME280;45056;47.602;9.886;2022-10-01T13:10:57;92846.41;;;10.86;71.13
59289;BME280;45056;47.602;9.886;2022-10-01T13:13:34;92848.69;;;10.87;71.12
59289;BME280;45056;47.602;9.886;2022-10-01T13:16:11;92852.94;;;10.88;71.30
59289;BME280;45056;47.602;9.886;2022-10-01T13:18:56;92850.66;;;10.87;71.36
59289;BME280;45056;47.602;9.886;2022-10-01T13:21:45;92851.84;;;10.86;71.47
59289;BME280;45056;47.602;9.886;2022-10-01T13:24:31;92854.56;;;10.86;71.65
59289;BME280;45056;47.602;9.886;2022-10-01T13:27:10;92861.53;;;10.87;71.55
59289;BME280;45056;47.602;9.886;2022-10-01T13:29:54;92864.25;;;10.87;71.76
59289;BME280;45056;47.602;9.886;2022-10-01T13:32:30;92860.31;;;10.88;71.95
59289;BME280;45056;47.602;9.886;2022-10-01T13:35:18;92859.59;;;10.87;71.87
59289;BME280;45056;47.602;9.886;2022-10-01T13:37:50;92860.31;;;10.88;71.84
59289;BME280;45056;47.602;9.886;2022-10-01T13:40:26;92865.78;;;10.88;71.97
59289;BME280;45056;47.602;9.886;2022-10-01T13:42:59;92856.84;;;10.87;72.16
59289;BME280;45056;47.602;9.886;2022-10-01T13:45:39;92850.97;;;10.89;72.05
59289;BME280;45056;47.602;9.886;2022-10-01T13:48:17;92847.03;;;10.90;72.17
59289;BME280;45056;47.602;9.886;2022-10-01T13:50:58;92859.44;;;10.91;72.61
59289;BME280;45056;47.602;9.886;2022-10-01T13:53:33;92853.56;;;10.92;72.58
59289;BME280;45056;47.602;9.886;2022-10-01T13:56:05;92851.91;;;10.95;72.68
59289;BME280;45056;47.602;9.886;2022-10-01T13:58:40;92854.19;;;10.96;72.67
59289;BME280;45056;47.602;9.886;2022-10-01T14:01:28;92847.53;;;10.97;72.96